createdAt,value
2018-06-18T00:02:13.366Z,16.45
2018-06-18T00:04:42.451Z,16.46
2018-06-18T00:07:11.560Z,16.43
2018-06-18T00:09:40.658Z,16.42
2018-06-18T00:12:13.131Z,16.43
2018-06-18T00:14:42.071Z,16.42
2018-06-18T00:17:11.131Z,16.46
2018-06-18T00:19:40.198Z,16.43
2018-06-18T00:22:18.033Z,16.47
2018-06-18T00:24:48.667Z,16.35
2018-06-18T00:27:18.084Z,16.38
2018-06-18T00:29:47.129Z,16.37
2018-06-18T00:32:16.340Z,16.31
2018-06-18T00:34:45.435Z,16.37
2018-06-18T00:37:14.470Z,16.46
2018-06-18T00:39:43.607Z,16.39
2018-06-18T00:42:12.533Z,16.38
2018-06-18T00:44:41.453Z,16.40
2018-06-18T00:47:10.507Z,16.38
2018-06-18T00:49:39.575Z,16.37
2018-06-18T00:52:12.067Z,16.39
2018-06-18T00:54:41.159Z,16.38
2018-06-18T00:57:10.106Z,16.44
2018-06-18T00:59:39.130Z,16.40
2018-06-18T01:02:11.972Z,16.45
2018-06-18T01:04:40.886Z,16.61
2018-06-18T01:07:10.326Z,16.60
2018-06-18T01:09:39.407Z,16.82
2018-06-18T01:12:11.496Z,16.58
2018-06-18T01:14:40.576Z,16.49
2018-06-18T01:17:09.512Z,16.52
2018-06-18T01:19:38.575Z,16.50
2018-06-18T01:22:10.635Z,16.51
2018-06-18T01:25:02.238Z,16.45
2018-06-18T01:27:31.471Z,16.44
2018-06-18T01:30:00.403Z,16.42
2018-06-18T01:32:29.654Z,16.43
2018-06-18T01:34:58.600Z,16.38
2018-06-18T01:37:27.909Z,16.44
2018-06-18T01:39:58.154Z,16.43
2018-06-18T01:42:27.362Z,16.47
2018-06-18T01:44:56.285Z,16.47
2018-06-18T01:47:25.318Z,16.47
2018-06-18T01:49:54.839Z,16.43
2018-06-18T01:52:23.752Z,16.43
2018-06-18T01:54:53.274Z,16.42
2018-06-18T01:57:22.319Z,16.41
2018-06-18T01:59:51.299Z,16.39
2018-06-18T02:02:20.302Z,16.38
2018-06-18T02:04:49.249Z,16.36
2018-06-18T02:07:18.722Z,16.42
2018-06-18T02:09:47.847Z,16.40
2018-06-18T02:12:18.127Z,16.47
2018-06-18T02:14:47.363Z,16.42
2018-06-18T02:17:16.436Z,16.40
2018-06-18T02:19:45.543Z,16.42
2018-06-18T02:22:15.064Z,16.46
2018-06-18T02:24:44.226Z,16.40
2018-06-18T02:27:17.626Z,16.40
2018-06-18T02:29:52.459Z,16.41
2018-06-18T02:32:27.119Z,16.40
2018-06-18T02:35:01.381Z,16.40
2018-06-18T02:37:35.844Z,16.43
2018-06-18T02:40:10.245Z,16.44
2018-06-18T02:42:40.140Z,16.45
2018-06-18T02:45:09.260Z,16.43
2018-06-18T02:47:38.344Z,16.43
2018-06-18T02:50:07.516Z,16.31
2018-06-18T02:52:36.758Z,16.39
2018-06-18T02:55:06.792Z,16.36
2018-06-18T02:57:36.255Z,16.36
2018-06-18T03:00:05.676Z,16.38
2018-06-18T03:02:34.631Z,16.39
2018-06-18T03:05:03.697Z,16.36
2018-06-18T03:07:32.740Z,16.35
2018-06-18T03:10:01.846Z,16.37
2018-06-18T03:12:31.174Z,16.42
2018-06-18T03:15:00.447Z,16.47
2018-06-18T03:17:29.535Z,16.47
2018-06-18T03:20:03.771Z,16.49
2018-06-18T03:22:38.175Z,16.49
2018-06-18T03:25:12.642Z,16.50
2018-06-18T03:27:47.610Z,16.49
2018-06-18T03:30:16.562Z,16.48
2018-06-18T03:32:45.918Z,16.49
2018-06-18T03:35:14.863Z,16.47
2018-06-18T03:37:43.916Z,16.53
2018-06-18T03:40:13.021Z,16.50
2018-06-18T03:42:42.959Z,16.49
2018-06-18T03:45:22.427Z,16.47
2018-06-18T03:47:51.868Z,16.48
2018-06-18T03:50:20.970Z,16.49
2018-06-18T03:52:50.282Z,16.53
2018-06-18T03:55:27.242Z,16.55
2018-06-18T03:57:57.166Z,16.57
2018-06-18T04:00:29.784Z,16.51
2018-06-18T04:03:04.557Z,16.60
2018-06-18T04:05:38.767Z,16.60
2018-06-18T04:08:10.742Z,16.62
2018-06-18T04:10:45.301Z,16.63
2018-06-18T04:13:14.356Z,16.62
2018-06-18T04:15:43.473Z,16.64
2018-06-18T04:18:12.553Z,16.66
2018-06-18T04:20:45.757Z,16.67
2018-06-18T04:23:14.934Z,16.66
2018-06-18T04:25:44.101Z,16.68
2018-06-18T04:28:13.327Z,16.66
2018-06-18T04:30:44.266Z,16.67
2018-06-18T04:33:15.176Z,16.65
2018-06-18T04:35:44.423Z,16.64
2018-06-18T04:38:13.507Z,16.65
2018-06-18T04:40:42.479Z,16.68
2018-06-18T04:43:16.839Z,16.71
2018-06-18T04:45:50.063Z,16.67
2018-06-18T04:48:24.439Z,16.70
2018-06-18T04:50:56.611Z,16.67
2018-06-18T04:53:25.805Z,16.69
2018-06-18T04:55:55.167Z,16.67
2018-06-18T04:58:24.611Z,16.68
2018-06-18T05:01:28.919Z,16.68
2018-06-18T05:03:58.123Z,16.71
2018-06-18T05:06:29.249Z,16.66
2018-06-18T05:09:16.913Z,16.64
2018-06-18T05:11:46.087Z,16.67
2018-06-18T05:14:15.263Z,16.64
2018-06-18T05:16:44.414Z,16.65
2018-06-18T05:19:13.459Z,16.69
2018-06-18T05:21:43.024Z,16.66
2018-06-18T05:24:12.107Z,16.68
2018-06-18T05:26:44.860Z,16.71
2018-06-18T05:29:13.952Z,16.72
2018-06-18T05:31:43.048Z,16.73
2018-06-18T05:34:14.291Z,16.76
2018-06-18T05:36:43.323Z,16.82
2018-06-18T05:39:12.281Z,16.81
2018-06-18T05:41:41.218Z,16.84
2018-06-18T05:44:10.247Z,16.88
2018-06-18T05:46:39.379Z,16.89
2018-06-18T05:49:08.460Z,16.92
2018-06-18T05:51:37.600Z,16.94
2018-06-18T05:54:06.627Z,16.98
2018-06-18T05:56:35.562Z,16.97
2018-06-18T05:59:04.642Z,17.00
2018-06-18T06:01:33.735Z,17.04
2018-06-18T06:04:02.731Z,17.05
2018-06-18T06:06:31.675Z,17.03
2018-06-18T06:09:00.919Z,17.06
2018-06-18T06:11:30.350Z,17.09
2018-06-18T06:13:59.296Z,17.19
2018-06-18T06:16:28.515Z,17.25
2018-06-18T06:18:57.603Z,17.24
2018-06-18T06:21:26.559Z,17.20
2018-06-18T06:23:56.072Z,17.32
2018-06-18T06:26:25.247Z,17.36
2018-06-18T06:28:54.487Z,17.45
2018-06-18T06:31:23.787Z,17.52
2018-06-18T06:33:52.678Z,17.41
2018-06-18T06:36:24.535Z,17.51
2018-06-18T06:38:53.767Z,17.48
2018-06-18T06:41:23.714Z,17.53
2018-06-18T06:43:52.958Z,17.57
2018-06-18T06:46:22.166Z,17.62
2018-06-18T06:48:51.405Z,17.59
2018-06-18T06:51:20.479Z,17.57
2018-06-18T06:53:49.547Z,17.72
2018-06-18T06:56:18.650Z,17.74
2018-06-18T06:58:48.423Z,17.76
2018-06-18T07:01:18.359Z,18.03
2018-06-18T07:03:48.061Z,18.07
2018-06-18T07:06:17.208Z,18.14
2018-06-18T07:08:46.262Z,18.10
2018-06-18T07:11:15.207Z,18.23
2018-06-18T07:13:44.795Z,18.37
2018-06-18T07:16:14.073Z,18.59
2018-06-18T07:18:43.001Z,18.70
2018-06-18T07:21:12.911Z,18.81
2018-06-18T07:23:42.207Z,18.55
2018-06-18T07:26:11.412Z,18.28
2018-06-18T07:28:40.496Z,18.25
2018-06-18T07:31:10.005Z,18.27
2018-06-18T07:33:39.278Z,18.37
2018-06-18T07:36:08.342Z,18.31
2018-06-18T07:38:37.534Z,18.19
2018-06-18T07:41:06.551Z,18.17
2018-06-18T07:43:35.654Z,18.14
2018-06-18T07:46:05.031Z,18.19
2018-06-18T07:48:34.231Z,18.24
2018-06-18T07:51:03.342Z,18.39
2018-06-18T07:53:32.598Z,18.22
2018-06-18T07:56:01.862Z,18.18
2018-06-18T07:58:30.833Z,18.18
2018-06-18T08:01:00.078Z,18.23
2018-06-18T08:03:29.295Z,18.33
2018-06-18T08:05:58.394Z,18.52
2018-06-18T08:08:27.646Z,18.53
2018-06-18T08:10:57.366Z,18.53
2018-06-18T08:13:26.535Z,18.55
2018-06-18T08:15:55.615Z,18.53
2018-06-18T08:18:24.715Z,18.61
2018-06-18T08:20:53.799Z,18.65
2018-06-18T08:23:22.743Z,18.75
2018-06-18T08:25:51.805Z,18.88
2018-06-18T08:28:20.785Z,18.87
2018-06-18T08:30:50.192Z,18.96
2018-06-18T08:33:19.299Z,19.07
2018-06-18T08:35:48.414Z,19.20
2018-06-18T08:38:18.115Z,19.25
2018-06-18T08:40:47.186Z,19.16
2018-06-18T08:43:16.403Z,19.18
2018-06-18T08:45:46.160Z,19.32
2018-06-18T08:49:23.911Z,19.45
2018-06-18T08:51:58.292Z,19.87
2018-06-18T08:54:32.571Z,19.80
2018-06-18T08:57:06.676Z,19.75
2018-06-18T09:01:47.623Z,19.92
2018-06-18T09:04:16.912Z,20.37
2018-06-18T09:06:47.068Z,20.96
2018-06-18T09:09:16.335Z,20.57
2018-06-18T09:11:45.345Z,20.44
2018-06-18T09:14:14.460Z,20.74
2018-06-18T09:16:43.540Z,20.75
2018-06-18T09:19:12.503Z,21.02
2018-06-18T09:21:41.533Z,20.68
2018-06-18T09:24:10.693Z,20.98
2018-06-18T09:26:40.148Z,20.72
2018-06-18T09:29:09.234Z,20.46
2018-06-18T09:31:42.882Z,20.30
2018-06-18T09:34:11.843Z,20.28
2018-06-18T09:36:41.127Z,20.15
2018-06-18T09:39:10.634Z,20.34
2018-06-18T09:41:39.539Z,20.35
2018-06-18T09:44:08.759Z,20.48
2018-06-18T09:46:38.453Z,20.28
2018-06-18T09:49:13.467Z,20.41
2018-06-18T09:53:51.287Z,20.69
2018-06-18T09:56:25.763Z,21.50
2018-06-18T09:59:00.083Z,21.40
2018-06-18T10:01:33.337Z,21.46
2018-06-18T10:04:04.719Z,21.20
2018-06-18T10:06:35.989Z,21.23
2018-06-18T10:09:10.223Z,20.98
2018-06-18T10:11:39.706Z,20.92
2018-06-18T10:14:10.564Z,20.75
2018-06-18T10:16:40.266Z,20.88
2018-06-18T10:19:09.271Z,20.79
2018-06-18T10:21:38.652Z,20.77
2018-06-18T10:24:07.783Z,20.79
2018-06-18T10:26:36.700Z,20.74
2018-06-18T10:29:06.098Z,20.80
2018-06-18T10:31:35.035Z,20.72
2018-06-18T10:34:09.367Z,20.59
2018-06-18T10:36:43.614Z,20.58
2018-06-18T10:39:18.066Z,20.69
2018-06-18T10:41:52.425Z,20.88
2018-06-18T10:44:21.618Z,20.79
2018-06-18T10:46:50.558Z,20.77
2018-06-18T10:49:19.677Z,20.80
2018-06-18T10:51:48.893Z,20.87
2018-06-18T10:54:18.061Z,21.12
2018-06-18T10:56:47.136Z,21.39
2018-06-18T10:59:16.197Z,21.49
2018-06-18T11:01:45.794Z,21.62
2018-06-18T11:04:19.970Z,21.94
2018-06-18T11:06:49.089Z,21.72
2018-06-18T11:09:18.257Z,22.10
2018-06-18T11:11:47.299Z,22.03
2018-06-18T11:14:16.487Z,22.30
2018-06-18T11:16:50.484Z,22.31
2018-06-18T11:19:24.507Z,22.10
2018-06-18T11:21:58.670Z,22.16
2018-06-18T11:24:34.228Z,22.06
2018-06-18T11:27:03.386Z,22.23
2018-06-18T11:29:32.587Z,22.06
2018-06-18T11:32:02.504Z,22.45
2018-06-18T11:34:31.587Z,22.63
2018-06-18T11:37:00.674Z,21.89
2018-06-18T11:39:30.829Z,21.85
2018-06-18T11:41:59.938Z,21.94
2018-06-18T11:44:29.260Z,22.18
2018-06-18T11:46:58.904Z,22.06
2018-06-18T11:49:28.195Z,21.88
2018-06-18T11:51:57.310Z,21.84
2018-06-18T11:54:26.498Z,21.87
2018-06-18T11:56:55.536Z,21.88
2018-06-18T11:59:29.666Z,21.91
2018-06-18T12:04:10.510Z,21.79
2018-06-18T12:06:44.927Z,21.53
2018-06-18T12:09:19.430Z,21.51
2018-06-18T12:11:49.307Z,21.55
2018-06-18T12:14:18.435Z,21.62
2018-06-18T12:16:47.442Z,21.59
2018-06-18T12:19:16.318Z,21.52
2018-06-18T12:21:45.629Z,21.42
2018-06-18T12:24:15.323Z,21.44
2018-06-18T12:26:44.882Z,21.43
2018-06-18T12:29:14.134Z,21.42
2018-06-18T12:31:43.064Z,21.40
2018-06-18T12:34:12.938Z,21.40
2018-06-18T12:36:42.291Z,21.46
2018-06-18T12:39:12.093Z,21.65
2018-06-18T12:41:47.452Z,21.66
2018-06-18T12:44:18.718Z,21.70
2018-06-18T12:46:53.690Z,21.67
2018-06-18T12:49:28.818Z,21.74
2018-06-18T12:52:03.818Z,21.67
2018-06-18T12:54:43.738Z,21.60
2018-06-18T12:57:12.787Z,21.49
2018-06-18T12:59:41.995Z,21.50
2018-06-18T13:02:20.399Z,21.49
2018-06-18T13:04:52.746Z,21.50
2018-06-18T13:07:22.552Z,21.57
2018-06-18T13:09:51.858Z,21.54
2018-06-18T13:12:20.980Z,21.53
2018-06-18T13:14:50.167Z,21.50
2018-06-18T13:17:19.387Z,21.44
2018-06-18T13:19:48.459Z,21.46
2018-06-18T13:22:17.599Z,21.60
2018-06-18T13:24:46.864Z,21.61
2018-06-18T13:27:15.980Z,21.62
2018-06-18T13:29:45.063Z,21.66
2018-06-18T13:32:14.937Z,21.63
2018-06-18T13:34:43.949Z,21.55
2018-06-18T13:37:18.292Z,21.23
2018-06-18T13:39:52.700Z,21.31
2018-06-18T13:42:27.084Z,21.37
2018-06-18T13:45:01.464Z,21.41
2018-06-18T13:47:35.831Z,21.34
2018-06-18T13:50:05.193Z,21.46
2018-06-18T13:52:34.242Z,21.28
2018-06-18T13:55:03.395Z,21.44
2018-06-18T13:57:32.455Z,21.44
2018-06-18T14:00:01.544Z,21.39
2018-06-18T14:02:30.543Z,21.20
2018-06-18T14:04:59.481Z,21.30
2018-06-18T14:07:28.738Z,21.36
2018-06-18T14:09:57.818Z,21.44
2018-06-18T14:12:27.026Z,21.64
2018-06-18T14:14:57.129Z,21.74
2018-06-18T14:17:26.267Z,21.27
2018-06-18T14:20:00.500Z,21.34
2018-06-18T14:22:30.441Z,21.34
2018-06-18T14:24:59.560Z,21.08
2018-06-18T14:27:28.673Z,21.12
2018-06-18T14:30:03.146Z,21.12
2018-06-18T14:32:37.527Z,21.13
2018-06-18T14:35:11.943Z,20.97
2018-06-18T14:37:46.507Z,21.06
2018-06-18T14:40:17.697Z,21.36
2018-06-18T14:42:46.583Z,21.17
2018-06-18T14:45:15.695Z,21.40
2018-06-18T14:47:44.992Z,21.16
2018-06-18T14:50:14.906Z,21.34
2018-06-18T14:52:44.165Z,21.33
2018-06-18T14:55:14.662Z,21.19
2018-06-18T14:57:44.566Z,21.11
2018-06-18T15:00:28.766Z,21.07
2018-06-18T15:02:58.012Z,21.28
2018-06-18T15:05:31.931Z,21.12
2018-06-18T15:08:00.855Z,21.06
2018-06-18T15:10:36.107Z,21.10
2018-06-18T15:13:06.860Z,21.17
2018-06-18T15:15:41.965Z,21.17
2018-06-18T15:18:11.477Z,21.30
2018-06-18T15:20:41.022Z,21.32
2018-06-18T15:23:10.956Z,21.36
2018-06-18T15:25:44.071Z,21.25
2018-06-18T15:28:13.400Z,21.30
2018-06-18T15:30:42.507Z,21.43
2018-06-18T15:33:11.714Z,21.48
2018-06-18T15:35:40.782Z,21.42
2018-06-18T15:38:09.915Z,21.50
2018-06-18T15:40:39.177Z,21.64
2018-06-18T15:43:08.393Z,21.77
2018-06-18T15:45:37.320Z,21.61
2018-06-18T15:48:06.376Z,21.57
2018-06-18T15:50:35.477Z,21.66
2018-06-18T15:53:04.679Z,21.79
2018-06-18T15:55:33.776Z,21.86
2018-06-18T15:58:03.239Z,21.82
2018-06-18T16:00:32.363Z,21.77
2018-06-18T16:03:01.536Z,21.78
2018-06-18T16:05:30.964Z,21.97
2018-06-18T16:08:00.168Z,22.05
2018-06-18T16:10:29.247Z,22.17
2018-06-18T16:12:58.169Z,22.17
2018-06-18T16:15:27.100Z,22.23
2018-06-18T16:17:56.351Z,22.01
2018-06-18T16:20:25.434Z,22.04
2018-06-18T16:22:55.171Z,22.01
2018-06-18T16:25:24.435Z,22.01
2018-06-18T16:27:53.407Z,22.01
2018-06-18T16:30:22.471Z,22.04
2018-06-18T16:32:51.959Z,22.26
2018-06-18T16:35:21.796Z,22.26
2018-06-18T16:37:50.749Z,22.44
2018-06-18T16:40:19.882Z,22.43
2018-06-18T16:42:49.037Z,22.39
2018-06-18T16:45:18.578Z,22.12
2018-06-18T16:47:47.639Z,22.16
2018-06-18T16:50:17.448Z,22.24
2018-06-18T16:52:46.548Z,22.24
2018-06-18T16:55:15.724Z,22.20
2018-06-18T16:57:44.932Z,22.27
2018-06-18T17:00:13.879Z,22.20
2018-06-18T17:02:43.190Z,22.19
2018-06-18T17:05:12.403Z,22.30
2018-06-18T17:07:41.708Z,22.37
2018-06-18T17:10:10.815Z,22.42
2018-06-18T17:12:39.896Z,22.51
2018-06-18T17:15:09.010Z,22.52
2018-06-18T17:17:38.552Z,22.39
2018-06-18T17:20:07.836Z,22.34
2018-06-18T17:22:37.375Z,22.47
2018-06-18T17:25:06.611Z,22.56
2018-06-18T17:27:36.514Z,22.54
2018-06-18T17:30:05.508Z,22.61
2018-06-18T17:32:34.932Z,22.66
2018-06-18T17:35:04.675Z,22.61
2018-06-18T17:37:33.732Z,22.54
2018-06-18T17:40:03.542Z,22.54
2018-06-18T17:42:32.652Z,22.50
2018-06-18T17:45:01.777Z,22.53
2018-06-18T17:47:30.824Z,22.48
2018-06-18T17:49:59.798Z,22.36
2018-06-18T17:52:29.162Z,22.36
2018-06-18T17:54:58.347Z,22.26
2018-06-18T17:57:27.378Z,22.34
2018-06-18T17:59:56.427Z,22.40
2018-06-18T18:02:25.461Z,22.38
2018-06-18T18:04:57.550Z,22.32
2018-06-18T18:07:27.814Z,22.27
2018-06-18T18:09:56.922Z,22.18
2018-06-18T18:12:25.912Z,22.10
2018-06-18T18:14:55.633Z,22.03
2018-06-18T18:17:25.468Z,21.98
2018-06-18T18:19:54.604Z,21.96
2018-06-18T18:22:23.648Z,21.94
2018-06-18T18:24:52.950Z,21.94
2018-06-18T18:27:22.138Z,21.92
2018-06-18T18:29:51.627Z,21.97
2018-06-18T18:32:20.924Z,22.02
2018-06-18T18:34:50.713Z,22.05
2018-06-18T18:37:19.666Z,22.12
2018-06-18T18:39:48.644Z,22.16
2018-06-18T18:42:19.095Z,22.17
2018-06-18T18:44:48.375Z,22.15
2018-06-18T18:47:18.419Z,22.08
2018-06-18T18:49:47.755Z,22.11
2018-06-18T18:52:18.451Z,22.11
2018-06-18T18:55:59.301Z,22.01
2018-06-18T18:59:33.843Z,22.02
2018-06-18T19:02:02.834Z,21.95
2018-06-18T19:04:43.435Z,21.93
2018-06-18T19:07:12.775Z,21.88
2018-06-18T19:09:49.297Z,21.84
2018-06-18T19:12:19.256Z,21.79
2018-06-18T19:14:49.415Z,21.75
2018-06-18T19:17:18.465Z,21.73
2018-06-18T19:20:01.492Z,21.69
2018-06-18T19:22:31.281Z,21.66
2018-06-18T19:25:00.932Z,21.62
2018-06-18T19:27:30.422Z,21.61
2018-06-18T19:29:59.899Z,21.57
2018-06-18T19:32:29.100Z,21.55
2018-06-18T19:34:58.051Z,21.48
2018-06-18T19:37:28.009Z,21.43
2018-06-18T19:39:56.970Z,21.35
2018-06-18T19:42:27.269Z,21.29
2018-06-18T19:44:56.196Z,21.22
2018-06-18T19:47:37.732Z,21.19
2018-06-18T19:50:06.885Z,21.14
2018-06-18T19:52:35.827Z,21.10
2018-06-18T19:55:10.142Z,21.06
2018-06-18T19:57:39.312Z,21.03
2018-06-18T20:00:08.596Z,20.92
2018-06-18T20:02:37.718Z,21.00
2018-06-18T20:05:12.793Z,20.98
2018-06-18T20:07:53.166Z,21.10
2018-06-18T20:10:23.458Z,21.12
2018-06-18T20:12:53.031Z,20.99
2018-06-18T20:15:22.596Z,21.01
2018-06-18T20:17:51.771Z,20.95
2018-06-18T20:20:21.626Z,20.90
2018-06-18T20:22:50.639Z,20.85
2018-06-18T20:25:28.146Z,20.80
2018-06-18T20:27:57.226Z,20.79
2018-06-18T20:30:26.315Z,20.80
2018-06-18T20:32:55.694Z,20.78
2018-06-18T20:35:29.294Z,20.81
2018-06-18T20:37:58.399Z,20.78
2018-06-18T20:40:28.082Z,20.73
2018-06-18T20:42:57.907Z,20.69
2018-06-18T20:45:28.042Z,20.68
2018-06-18T20:47:56.983Z,20.74
2018-06-18T20:50:26.244Z,20.72
2018-06-18T20:52:55.215Z,20.75
2018-06-18T20:55:24.442Z,20.75
2018-06-18T20:57:53.524Z,20.75
2018-06-18T21:00:22.647Z,20.70
2018-06-18T21:02:51.810Z,20.70
2018-06-18T21:05:20.743Z,20.68
2018-06-18T21:07:50.030Z,20.71
2018-06-18T21:10:18.944Z,20.69
2018-06-18T21:12:48.136Z,20.67
2018-06-18T21:15:18.288Z,20.68
2018-06-18T21:17:47.508Z,20.73
2018-06-18T21:20:16.960Z,20.71
2018-06-18T21:22:46.926Z,20.76
2018-06-18T21:25:16.016Z,20.75
2018-06-18T21:27:45.076Z,20.65
2018-06-18T21:30:14.202Z,20.64
2018-06-18T21:32:43.315Z,20.68
2018-06-18T21:35:12.402Z,20.65
2018-06-18T21:37:41.358Z,20.62
2018-06-18T21:40:10.596Z,20.59
2018-06-18T21:42:40.544Z,20.64
2018-06-18T21:45:14.337Z,20.49
2018-06-18T21:47:43.341Z,20.48
2018-06-18T21:50:12.791Z,20.47
2018-06-18T21:52:42.019Z,20.40
2018-06-18T21:55:11.119Z,20.47
2018-06-18T21:57:40.203Z,20.56
2018-06-18T22:00:14.627Z,20.39
2018-06-18T22:02:43.891Z,20.42
2018-06-18T22:05:12.925Z,20.55
2018-06-18T22:07:42.854Z,20.50
2018-06-18T22:10:12.512Z,20.55
2018-06-18T22:12:42.169Z,20.35
2018-06-18T22:15:11.955Z,20.33
2018-06-18T22:17:41.191Z,20.15
2018-06-18T22:20:10.277Z,20.08
2018-06-18T22:22:39.575Z,20.04
2018-06-18T22:25:08.895Z,20.19
2018-06-18T22:27:38.881Z,20.14
2018-06-18T22:30:08.132Z,20.04
2018-06-18T22:32:37.710Z,20.05
2018-06-18T22:35:06.692Z,20.03
2018-06-18T22:37:35.771Z,20.17
2018-06-18T22:40:04.901Z,20.09
2018-06-18T22:42:34.194Z,20.11
2018-06-18T22:45:03.518Z,20.17
2018-06-18T22:47:32.564Z,20.12
2018-06-18T22:50:01.679Z,20.07
2018-06-18T22:52:31.222Z,20.01
2018-06-18T22:55:00.496Z,19.97
2018-06-18T22:57:29.582Z,20.09
2018-06-18T22:59:58.653Z,20.06
2018-06-18T23:02:30.409Z,20.02
2018-06-18T23:04:59.874Z,19.72
2018-06-18T23:07:29.738Z,19.69
2018-06-18T23:09:59.051Z,19.82
2018-06-18T23:12:37.809Z,19.82
